Airfield :







YOU CAN JOIN US ON...

 
LOGIN :

Register | Disclaimer

   EN    FR    IT 

 









Legend :    VFR   Marginal VFR   IFR   Intensive IFR   Very Intensive IFR
Visi :
Ceiling :
>= 8 km
>= 3000ft
5 to 8 km
1000 to 3000 ft
1500m to 5 km
500 to 1000 ft
800 to 1500m
200 to 500 ft
< 800m
< 200 ft
Symbols :   Thunderstorms  Fog  Heavy snow  Heavy precipitations  Wind > 20 kt







- Airport Elevation : 1166 ft


KMPV - Edward F Knapp State

CURRENT METAR :
  • 200933Z AUTO 00000KT 4SM BR SCT001 04/04 A3027 RMK AO2 T00440044

EXPIRED METARs :
  • 200851Z AUTO 00000KT 3/4SM BR VV001 05/05 A3026 RMK AO2 SLP252 T00500050 55004
  • 200751Z AUTO 00000KT 1/2SM FG VV001 05/04 A3026 RMK AO2 SLP252 T00500044
  • 200740Z AUTO 00000KT 2SM BR OVC001 05/04 A3026 RMK AO2 T00500044
  • 200651Z AUTO 00000KT 3/4SM BR VV001 05/05 A3027 RMK AO2 SLP255 T00500050
  • 200637Z AUTO 00000KT 7SM BKN001 06/05 A3027 RMK AO2 T00610050

TAF KMPV
Valid from the 20 at 06:00 until the 21 at 06:00 UTC


200532Z 2006/2106 00000KT P6SM SCT002 SCT250
TEMPO 2006/2007 1SM BR BKN001
FM200700 00000KT 1/4SM FG VV001
FM201300 00000KT P6SM SCT180
FM210000 00000KT P6SM FEW100
No reported NOTAMs for that airfield.



MET'MAP, your aeronautical weather chart ! - Copyright ORBIFLY December 2007 - Disclaimer

ORBIFLY MET'MAP TEAM :

Programming & Development : Alexandra Zaïnal
Concept & Development : Baudouin d'Aumeries
Co-Development & Prog : Marc-Olivier Méhu
Technical & hardware support : Manuel Goepfert

Contact : metmap@orbifly.com




SOURCES & CREDITS :

   NOAA